Observation data for Tatum on 01/19/2019      Previous  Date  Next       Current Mesonet Observations  Soil Data  Daily Summary Page  Observations in Plain Language
KTAT 190600Z 33015KT 02/M00 A3013 RMK A01 T00211004  RH  084%=      5-min Rain = 0
KTAT 190605Z 33016G21KT 02/M01 A3014 RMK A01 T00211005  RH  084%=      5-min Rain = 0
KTAT 190610Z 34015G21KT 02/M01 A3014 RMK A01 T00201006  RH  084%=      5-min Rain = 0
KTAT 190615Z 33015KT 02/M01 A3014 RMK A01 T00201007  RH  083%=      5-min Rain = 0
KTAT 190620Z 33014KT 02/M01 A3015 RMK A01 T00181008  RH  084%=      5-min Rain = 0
KTAT 190625Z 33013G18KT 02/M01 A3015 RMK A01 T00161008  RH  085%=      5-min Rain = 0
KTAT 190630Z 33015G20KT 02/M01 A3015 RMK A01 T00151008  RH  085%=      5-min Rain = 0
KTAT 190635Z 33015KT 02/M01 A3016 RMK A01 T00151008  RH  085%=      5-min Rain = 0
KTAT 190640Z 33016G22KT 02/M01 A3016 RMK A01 T00151008  RH  085%=      5-min Rain = 0
KTAT 190645Z 34016G21KT 02/M01 A3016 RMK A01 T00151009  RH  085%=      5-min Rain = 0
KTAT 190650Z 34014KT 02/M01 A3016 RMK A01 T00151010  RH  084%=      5-min Rain = 0
KTAT 190655Z 34016G21KT 01/M01 A3017 RMK A01 T00141011  RH  084%=      5-min Rain = 0
KTAT 190700Z 34017G24KT 01/M01 A3017 RMK A01 T00141014  RH  083%=      5-min Rain = 0
KTAT 190705Z 34018KT 01/M02 A3017 RMK A01 T00131016  RH  081%=      5-min Rain = 0
KTAT 190710Z 34018G23KT 01/M02 A3017 RMK A01 T00131019  RH  080%=      5-min Rain = 0
KTAT 190715Z 33017G22KT 01/M02 A3018 RMK A01 T00121021  RH  079%=      5-min Rain = 0
KTAT 190720Z 33018G25KT 01/M02 A3018 RMK A01 T00111024  RH  078%=      5-min Rain = 0
KTAT 190725Z 34019G24KT 01/M03 A3018 RMK A01 T00131026  RH  076%=      5-min Rain = 0
KTAT 190730Z 34021G26KT 01/M03 A3017 RMK A01 T00141029  RH  074%=      5-min Rain = 0
KTAT 190735Z 34019G24KT 01/M03 A3018 RMK A01 T00141030  RH  073%=      5-min Rain = 0
KTAT 190740Z 34017KT 01/M03 A3018 RMK A01 T00121030  RH  074%=      5-min Rain = 0
KTAT 190745Z 34017G22KT 01/M03 A3018 RMK A01 T00121030  RH  074%=      5-min Rain = 0
KTAT 190750Z 34017KT 01/M03 A3018 RMK A01 T00111031  RH  074%=      5-min Rain = 0
KTAT 190755Z 34016KT 01/M03 A3019 RMK A01 T00111032  RH  074%=      5-min Rain = 0
KTAT 190800Z 34015KT 01/M03 A3019 RMK A01 T00111032  RH  073%=      5-min Rain = 0
KTAT 190805Z 34014G19KT 01/M03 A3019 RMK A01 T00111032  RH  074%=      5-min Rain = 0
KTAT 190810Z 33012KT 01/M03 A302 RMK A01 T00091032  RH  075%=      5-min Rain = 0
KTAT 190815Z 33011KT 01/M03 A302 RMK A01 T00071032  RH  075%=      5-min Rain = 0
KTAT 190820Z 33011KT 01/M03 A302 RMK A01 T00071031  RH  076%=      5-min Rain = 0
KTAT 190825Z 33010KT 01/M03 A302 RMK A01 T00061032  RH  076%=      5-min Rain = 0
KTAT 190830Z 33009KT 01/M03 A302 RMK A01 T00061032  RH  076%=      5-min Rain = 0
KTAT 190835Z 32008KT 00/M03 A302 RMK A01 T00031033  RH  077%=      5-min Rain = 0
KTAT 190840Z 32007KT 00/M03 A302 RMK A01 T00011033  RH  078%=      5-min Rain = 0
KTAT 190845Z 32007KT 00/03 A302 RMK A01 T00-00-34  RH  079%=      5-min Rain = 0
KTAT 190850Z 31007KT M00/M03 A302 RMK A01 T10011034  RH  079%=      5-min Rain = 0
KTAT 190855Z 32007KT M00/M03 A302 RMK A01 T10031034  RH  080%=      5-min Rain = 0
KTAT 190900Z 32007KT M00/M03 A302 RMK A01 T10011034  RH  079%=      5-min Rain = 0
KTAT 190905Z 32008KT M00/M03 A3021 RMK A01 T10011034  RH  079%=      5-min Rain = 0
KTAT 190910Z 31007KT M00/M04 A3021 RMK A01 T10031035  RH  079%=      5-min Rain = 0
KTAT 190915Z 31006KT M01/M04 A3021 RMK A01 T10051036  RH  080%=      5-min Rain = 0
KTAT 190920Z 31007KT M00/M04 A302 RMK A01 T10041036  RH  080%=      5-min Rain = 0
KTAT 190925Z 31007KT M01/M04 A302 RMK A01 T10071037  RH  081%=      5-min Rain = 0
KTAT 190930Z 31008KT M01/M04 A3021 RMK A01 T10051035  RH  081%=      5-min Rain = 0
KTAT 190935Z 31009KT M00/M04 A3021 RMK A01 T10041035  RH  080%=      5-min Rain = 0
KTAT 190940Z 31010KT M00/M04 A3021 RMK A01 T10041035  RH  080%=      5-min Rain = 0
KTAT 190945Z 31010KT M01/M04 A3021 RMK A01 T10061036  RH  080%=      5-min Rain = 0
KTAT 190950Z 30010KT M01/M04 A3022 RMK A01 T10101037  RH  082%=      5-min Rain = 0
KTAT 190955Z 30010KT M01/M04 A3022 RMK A01 T10131038  RH  084%=      5-min Rain = 0
KTAT 191000Z 31009KT M02/M04 A3022 RMK A01 T10151038  RH  085%=      5-min Rain = 0
KTAT 191005Z 31009KT M02/M04 A3022 RMK A01 T10151037  RH  085%=      5-min Rain = 0
KTAT 191010Z 31009KT M01/M04 A3022 RMK A01 T10141037  RH  085%=      5-min Rain = 0
KTAT 191015Z 31010KT M01/M04 A3022 RMK A01 T10141037  RH  084%=      5-min Rain = 0
KTAT 191020Z 30010KT M01/M04 A3022 RMK A01 T10131037  RH  084%=      5-min Rain = 0
KTAT 191025Z 30011KT M01/M04 A3022 RMK A01 T10141037  RH  084%=      5-min Rain = 0
KTAT 191030Z 31011KT M01/M04 A3022 RMK A01 T10121037  RH  084%=      5-min Rain = 0
KTAT 191035Z 31011KT M01/M04 A3022 RMK A01 T10081037  RH  082%=      5-min Rain = 0
KTAT 191040Z 32011KT M01/M04 A3022 RMK A01 T10071037  RH  081%=      5-min Rain = 0
KTAT 191045Z 32011KT M01/M04 A3022 RMK A01 T10071038  RH  080%=      5-min Rain = 0
KTAT 191050Z 32009KT M01/M04 A3022 RMK A01 T10101040  RH  080%=      5-min Rain = 0
KTAT 191055Z 31009KT M02/M04 A3022 RMK A01 T10151042  RH  082%=      5-min Rain = 0
KTAT 191100Z 32009KT M02/M04 A3022 RMK A01 T10181043  RH  084%=      5-min Rain = 0
KTAT 191105Z 32009KT M02/M04 A3022 RMK A01 T10181043  RH  084%=      5-min Rain = 0
KTAT 191110Z 33008KT M02/M04 A3022 RMK A01 T10191044  RH  083%=      5-min Rain = 0
KTAT 191115Z 32008KT M02/M05 A3022 RMK A01 T10211046  RH  083%=      5-min Rain = 0
KTAT 191120Z 31007KT M02/M05 A3023 RMK A01 T10221046  RH  084%=      5-min Rain = 0
KTAT 191125Z 30007KT M03/M05 A3023 RMK A01 T10251048  RH  085%=      5-min Rain = 0
KTAT 191130Z 30007KT M03/M05 A3023 RMK A01 T10261048  RH  085%=      5-min Rain = 0
KTAT 191135Z 31006KT M03/M05 A3023 RMK A01 T10271048  RH  086%=      5-min Rain = 0
KTAT 191140Z 31007KT M03/M05 A3023 RMK A01 T10261047  RH  086%=      5-min Rain = 0
KTAT 191145Z 30008KT M03/M05 A3023 RMK A01 T10251047  RH  085%=      5-min Rain = 0
KTAT 191150Z 30008KT M03/M05 A3024 RMK A01 T10261048  RH  085%=      5-min Rain = 0
KTAT 191155Z 29008KT M03/M05 A3024 RMK A01 T10291049  RH  086%=      5-min Rain = 0
KTAT 191200Z 29008KT M03/M05 A3024 RMK A01 T10281047  RH  087%=      5-min Rain = 0
KTAT 191205Z 30009KT M03/M05 A3024 RMK A01 T10261046  RH  086%=      5-min Rain = 0
KTAT 191210Z 30009KT M02/M05 A3024 RMK A01 T10241046  RH  086%=      5-min Rain = 0
KTAT 191215Z 30009KT M02/M05 A3025 RMK A01 T10221045  RH  085%=      5-min Rain = 0
KTAT 191220Z 30009KT M02/M05 A3025 RMK A01 T10211045  RH  084%=      5-min Rain = 0
KTAT 191225Z 29009KT M02/M04 A3025 RMK A01 T10201044  RH  084%=      5-min Rain = 0
KTAT 191230Z 29009KT M02/M04 A3026 RMK A01 T10201044  RH  084%=      5-min Rain = 0
KTAT 191235Z 28009KT M02/M05 A3026 RMK A01 T10211045  RH  084%=      5-min Rain = 0
KTAT 191240Z 28008KT M02/M05 A3027 RMK A01 T10231045  RH  085%=      5-min Rain = 0
KTAT 191245Z 28009KT M03/M05 A3027 RMK A01 T10251046  RH  086%=      5-min Rain = 0
KTAT 191250Z 28009KT M03/M05 A3027 RMK A01 T10251045  RH  087%=      5-min Rain = 0
KTAT 191255Z 28009KT M03/M05 A3027 RMK A01 T10251045  RH  087%=      5-min Rain = 0
KTAT 191300Z 28009KT M03/M05 A3027 RMK A01 T10261045  RH  087%=      5-min Rain = 0
KTAT 191305Z 28009KT M03/M05 A3028 RMK A01 T10261045  RH  087%=      5-min Rain = 0
KTAT 191310Z 28009KT M03/M05 A3028 RMK A01 T10271046  RH  087%=      5-min Rain = 0
KTAT 191315Z 29008KT M03/M05 A3028 RMK A01 T10271046  RH  087%=      5-min Rain = 0
KTAT 191320Z 29008KT M03/M05 A3028 RMK A01 T10281047  RH  087%=      5-min Rain = 0
KTAT 191325Z 29008KT M03/M05 A3028 RMK A01 T10291047  RH  087%=      5-min Rain = 0
KTAT 191330Z 29008KT M03/M05 A3028 RMK A01 T10281047  RH  087%=      5-min Rain = 0
KTAT 191335Z 29008KT M03/M05 A3029 RMK A01 T10281047  RH  087%=      5-min Rain = 0
KTAT 191340Z 30008KT M03/M05 A3029 RMK A01 T10291048  RH  087%=      5-min Rain = 0
KTAT 191345Z 30009KT M03/M05 A3029 RMK A01 T10311049  RH  087%=      5-min Rain = 0
KTAT 191350Z 29010KT M03/M05 A3029 RMK A01 T10311049  RH  088%=      5-min Rain = 0
KTAT 191355Z 29010KT M03/M05 A303 RMK A01 T10301048  RH  087%=      5-min Rain = 0
KTAT 191400Z 29010KT M03/M05 A303 RMK A01 T10291048  RH  087%=      5-min Rain = 0
KTAT 191405Z 30011KT M03/M05 A303 RMK A01 T10271046  RH  087%=      5-min Rain = 0
KTAT 191410Z 30011KT M02/M05 A303 RMK A01 T10241045  RH  086%=      5-min Rain = 0
KTAT 191415Z 30011KT M02/M04 A303 RMK A01 T10211044  RH  085%=      5-min Rain = 0
KTAT 191420Z 30011KT M02/M04 A303 RMK A01 T10171043  RH  083%=      5-min Rain = 0
KTAT 191425Z 31010KT M01/M04 A303 RMK A01 T10141041  RH  082%=      5-min Rain = 0
KTAT 191430Z 31008KT M01/M04 A303 RMK A01 T10111039  RH  081%=      5-min Rain = 0
KTAT 191435Z 31009KT M01/M04 A303 RMK A01 T10081038  RH  081%=      5-min Rain = 0
KTAT 191440Z 31009KT M01/M04 A303 RMK A01 T10061036  RH  080%=      5-min Rain = 0
KTAT 191445Z 30008KT M00/M03 A3031 RMK A01 T10031034  RH  080%=      5-min Rain = 0
KTAT 191450Z 30008KT 00/M03 A3031 RMK A01 T00011032  RH  079%=      5-min Rain = 0
KTAT 191455Z 29009KT 01/M03 A3032 RMK A01 T00051031  RH  077%=      5-min Rain = 0
KTAT 191500Z 30008KT 01/M03 A3032 RMK A01 T00071030  RH  077%=      5-min Rain = 0
KTAT 191505Z 30008KT 01/M03 A3032 RMK A01 T00111029  RH  075%=      5-min Rain = 0
KTAT 191510Z 30008KT 02/M03 A3032 RMK A01 T00151027  RH  074%=      5-min Rain = 0
KTAT 191515Z 31008KT 02/M03 A3032 RMK A01 T00211025  RH  072%=      5-min Rain = 0
KTAT 191520Z 31008KT 03/M03 A3033 RMK A01 T00271025  RH  069%=      5-min Rain = 0
KTAT 191525Z 31009KT 03/M02 A3033 RMK A01 T00341024  RH  066%=      5-min Rain = 0
KTAT 191530Z 31009KT 04/M03 A3033 RMK A01 T00381025  RH  064%=      5-min Rain = 0
KTAT 191535Z 31009KT 04/M03 A3033 RMK A01 T00421026  RH  062%=      5-min Rain = 0
KTAT 191540Z 31010KT 04/M03 A3033 RMK A01 T00431029  RH  060%=      5-min Rain = 0
KTAT 191545Z 30010KT 05/M03 A3034 RMK A01 T00451028  RH  059%=      5-min Rain = 0
KTAT 191550Z 30010KT 05/M03 A3034 RMK A01 T00471028  RH  058%=      5-min Rain = 0
KTAT 191555Z 31010KT 05/M03 A3034 RMK A01 T00511029  RH  056%=      5-min Rain = 0
KTAT 191600Z 31011KT 05/M03 A3034 RMK A01 T00541031  RH  055%=      5-min Rain = 0
KTAT 191605Z 31011KT 06/M03 A3034 RMK A01 T00571032  RH  053%=      5-min Rain = 0
KTAT 191610Z 31011KT 06/M03 A3034 RMK A01 T00601034  RH  051%=      5-min Rain = 0
KTAT 191615Z 31010KT 06/M03 A3034 RMK A01 T00641032  RH  050%=      5-min Rain = 0
KTAT 191620Z 31011KT 07/M04 A3034 RMK A01 T00681035  RH  048%=      5-min Rain = 0
KTAT 191625Z 31011KT 07/M04 A3034 RMK A01 T00721036  RH  046%=      5-min Rain = 0
KTAT 191630Z 32013KT 07/M04 A3034 RMK A01 T00741041  RH  044%=      5-min Rain = 0
KTAT 191635Z 32012KT 08/M04 A3034 RMK A01 T00761043  RH  043%=      5-min Rain = 0
KTAT 191640Z 32010KT 08/M05 A3034 RMK A01 T00781047  RH  041%=      5-min Rain = 0
KTAT 191645Z 33011KT 08/M05 A3034 RMK A01 T00771054  RH  039%=      5-min Rain = 0
KTAT 191650Z 32010KT 08/M05 A3034 RMK A01 T00801052  RH  039%=      5-min Rain = 0
KTAT 191655Z 33010KT 08/M05 A3034 RMK A01 T00821051  RH  039%=      5-min Rain = 0
KTAT 191700Z 31010KT 08/M05 A3034 RMK A01 T00841052  RH  038%=      5-min Rain = 0
KTAT 191705Z 33010KT 08/M05 A3034 RMK A01 T00841054  RH  037%=      5-min Rain = 0
KTAT 191710Z 33009KT 08/M06 A3035 RMK A01 T00841055  RH  037%=      5-min Rain = 0
KTAT 191715Z 33009KT 08/M05 A3035 RMK A01 T00841054  RH  037%=      5-min Rain = 0
KTAT 191720Z 32008KT 09/M05 A3035 RMK A01 T00891052  RH  037%=      5-min Rain = 0
KTAT 191725Z 31009KT 09/M06 A3035 RMK A01 T00901055  RH  035%=      5-min Rain = 0
KTAT 191730Z 29008G14KT 09/M05 A3035 RMK A01 T00911054  RH  036%=      5-min Rain = 0
KTAT 191735Z 31010KT 10/M05 A3035 RMK A01 T00951053  RH  035%=      5-min Rain = 0
KTAT 191740Z 30006KT 10/M05 A3035 RMK A01 T00961052  RH  035%=      5-min Rain = 0
KTAT 191745Z 30009KT 10/M06 A3035 RMK A01 T00961056  RH  034%=      5-min Rain = 0
KTAT 191750Z 30008KT 09/M05 A3035 RMK A01 T00941054  RH  035%=      5-min Rain = 0
KTAT 191755Z 30008G13KT 09/M05 A3035 RMK A01 T00931053  RH  035%=      5-min Rain = 0
KTAT 191800Z 32006KT 09/M05 A3035 RMK A01 T00931054  RH  035%=      5-min Rain = 0
KTAT 191805Z 29007KT 10/M05 A3034 RMK A01 T00951053  RH  035%=      5-min Rain = 0
KTAT 191810Z 29007KT 10/M06 A3034 RMK A01 T00961056  RH  034%=      5-min Rain = 0
KTAT 191815Z 28006KT 10/M06 A3034 RMK A01 T00991056  RH  033%=      5-min Rain = 0
KTAT 191820Z 27007KT 10/M06 A3034 RMK A01 T00991058  RH  033%=      5-min Rain = 0
KTAT 191825Z 25006KT 10/M06 A3034 RMK A01 T00981056  RH  033%=      5-min Rain = 0
KTAT 191830Z 27007G14KT 10/M06 A3034 RMK A01 T01021057  RH  032%=      5-min Rain = 0
KTAT 191835Z 26007G12KT 10/M06 A3034 RMK A01 T00991059  RH  032%=      5-min Rain = 0
KTAT 191840Z 26008KT 10/M06 A3033 RMK A01 T01021060  RH  032%=      5-min Rain = 0
KTAT 191845Z 27006G12KT 10/M06 A3033 RMK A01 T01011062  RH  031%=      5-min Rain = 0
KTAT 191850Z 27009KT 10/M06 A3033 RMK A01 T01011063  RH  031%=      5-min Rain = 0
KTAT 191855Z 27009KT 10/M06 A3033 RMK A01 T01031063  RH  030%=      5-min Rain = 0
KTAT 191900Z 26011KT 10/M07 A3033 RMK A01 T01031066  RH  030%=      5-min Rain = 0
KTAT 191905Z 26009KT 10/M06 A3032 RMK A01 T01041063  RH  030%=      5-min Rain = 0
KTAT 191910Z 27008G13KT 10/M06 A3032 RMK A01 T01041063  RH  030%=      5-min Rain = 0
KTAT 191915Z 27008G13KT 10/M06 A3032 RMK A01 T01031064  RH  030%=      5-min Rain = 0
KTAT 191920Z 26009G14KT 11/M06 A3032 RMK A01 T01081064  RH  029%=      5-min Rain = 0
KTAT 191925Z 26009KT 11/M07 A3031 RMK A01 T01081068  RH  028%=      5-min Rain = 0
KTAT 191930Z 28009KT 11/M07 A3031 RMK A01 T01091067  RH  028%=      5-min Rain = 0
KTAT 191935Z 26009KT 11/M07 A3031 RMK A01 T01111070  RH  027%=      5-min Rain = 0
KTAT 191940Z 29011KT 11/M07 A303 RMK A01 T01121071  RH  027%=      5-min Rain = 0
KTAT 191945Z 29011KT 11/M07 A303 RMK A01 T01131072  RH  027%=      5-min Rain = 0
KTAT 191950Z 29010KT 11/M07 A303 RMK A01 T01131071  RH  027%=      5-min Rain = 0
KTAT 191955Z 26009G15KT 11/M07 A3029 RMK A01 T01131072  RH  027%=      5-min Rain = 0
KTAT 192000Z 27008G14KT 12/M07 A3029 RMK A01 T01181072  RH  026%=      5-min Rain = 0
KTAT 192005Z 26009KT 12/M08 A3029 RMK A01 T01151075  RH  026%=      5-min Rain = 0
KTAT 192010Z 24004G9KT 12/M08 A3029 RMK A01 T01161078  RH  025%=      5-min Rain = 0
KTAT 192015Z 27008G13KT 12/M07 A3028 RMK A01 T01181074  RH  025%=      5-min Rain = 0
KTAT 192020Z 27009G14KT 12/M08 A3028 RMK A01 T01191076  RH  025%=      5-min Rain = 0
KTAT 192025Z 27004G9KT 12/M08 A3028 RMK A01 T01181076  RH  025%=      5-min Rain = 0
KTAT 192030Z 28009KT 12/M08 A3028 RMK A01 T01191078  RH  024%=      5-min Rain = 0
KTAT 192035Z 25008KT 12/M08 A3028 RMK A01 T01171080  RH  024%=      5-min Rain = 0
KTAT 192040Z 28009KT 12/M08 A3027 RMK A01 T01171080  RH  024%=      5-min Rain = 0
KTAT 192045Z 28007KT 12/M08 A3027 RMK A01 T01161083  RH  024%=      5-min Rain = 0
KTAT 192050Z 25005G10KT 12/M09 A3027 RMK A01 T01181085  RH  023%=      5-min Rain = 0
KTAT 192055Z 25008KT 12/M08 A3027 RMK A01 T01191082  RH  024%=      5-min Rain = 0
KTAT 192100Z 27007KT 12/M08 A3027 RMK A01 T01181083  RH  024%=      5-min Rain = 0
KTAT 192105Z 25008KT 12/M08 A3027 RMK A01 T01211084  RH  023%=      5-min Rain = 0
KTAT 192110Z 24008KT 12/M08 A3027 RMK A01 T01211081  RH  024%=      5-min Rain = 0
KTAT 192115Z 25008G13KT 12/M08 A3026 RMK A01 T01211082  RH  023%=      5-min Rain = 0
KTAT 192120Z 25010KT 12/M08 A3026 RMK A01 T01241084  RH  023%=      5-min Rain = 0
KTAT 192125Z 24008KT 12/M09 A3026 RMK A01 T01211086  RH  023%=      5-min Rain = 0
KTAT 192130Z 25006KT 12/M09 A3026 RMK A01 T01231085  RH  023%=      5-min Rain = 0
KTAT 192135Z 25010KT 13/M08 A3026 RMK A01 T01251084  RH  022%=      5-min Rain = 0
KTAT 192140Z 27008KT 12/M09 A3026 RMK A01 T01211085  RH  023%=      5-min Rain = 0
KTAT 192145Z 28007G13KT 12/M08 A3025 RMK A01 T01231084  RH  023%=      5-min Rain = 0
KTAT 192150Z 28008KT 12/M09 A3025 RMK A01 T01221090  RH  022%=      5-min Rain = 0
KTAT 192155Z 27010KT 12/M09 A3025 RMK A01 T01221093  RH  021%=      5-min Rain = 0
KTAT 192200Z 26007KT 12/M09 A3025 RMK A01 T01221090  RH  022%=      5-min Rain = 0
KTAT 192205Z 26009KT 12/M09 A3025 RMK A01 T01221089  RH  022%=      5-min Rain = 0
KTAT 192210Z 26010G15KT 12/M09 A3025 RMK A01 T01231089  RH  022%=      5-min Rain = 0
KTAT 192215Z 25006KT 12/M09 A3025 RMK A01 T01231087  RH  022%=      5-min Rain = 0
KTAT 192220Z 26009KT 12/M09 A3025 RMK A01 T01241088  RH  022%=      5-min Rain = 0
KTAT 192225Z 25009KT 12/M09 A3025 RMK A01 T01241090  RH  021%=      5-min Rain = 0
KTAT 192230Z 26008KT 12/M09 A3025 RMK A01 T01241091  RH  021%=      5-min Rain = 0
KTAT 192235Z 27011G16KT 12/M09 A3025 RMK A01 T01231093  RH  021%=      5-min Rain = 0
KTAT 192240Z 28007KT 12/M09 A3025 RMK A01 T01221094  RH  021%=      5-min Rain = 0
KTAT 192245Z 27009KT 12/M09 A3025 RMK A01 T01221094  RH  021%=      5-min Rain = 0
KTAT 192250Z 28009KT 12/M09 A3025 RMK A01 T01221094  RH  021%=      5-min Rain = 0
KTAT 192255Z 28011KT 12/M09 A3025 RMK A01 T01221093  RH  021%=      5-min Rain = 0
KTAT 192300Z 28010KT 12/M09 A3025 RMK A01 T01221094  RH  021%=      5-min Rain = 0
KTAT 192305Z 28009KT 12/M10 A3025 RMK A01 T01211096  RH  021%=      5-min Rain = 0
KTAT 192310Z 29009KT 12/M10 A3025 RMK A01 T01201098  RH  021%=      5-min Rain = 0
KTAT 192315Z 27009KT 12/M09 A3025 RMK A01 T01201094  RH  021%=      5-min Rain = 0
KTAT 192320Z 26010KT 12/M09 A3025 RMK A01 T01181092  RH  022%=      5-min Rain = 0
KTAT 192325Z 29009KT 12/M09 A3025 RMK A01 T01171094  RH  022%=      5-min Rain = 0
KTAT 192330Z 29007KT 12/M09 A3025 RMK A01 T01161094  RH  022%=      5-min Rain = 0
KTAT 192335Z 28007KT 12/M09 A3025 RMK A01 T01151092  RH  023%=      5-min Rain = 0
KTAT 192340Z 28006KT 11/M09 A3025 RMK A01 T01131090  RH  023%=      5-min Rain = 0
KTAT 192345Z 27005KT 11/M09 A3024 RMK A01 T01111088  RH  024%=      5-min Rain = 0
KTAT 192350Z 27005KT 11/M09 A3025 RMK A01 T01081087  RH  025%=      5-min Rain = 0
KTAT 192355Z 27004KT 10/M09 A3025 RMK A01 T01041087  RH  025%=      5-min Rain = 0
KTAT 200000Z 27004KT 10/M09 A3025 RMK A01 T01001086  RH  026%=      5-min Rain = 0
KTAT 200005Z 26003KT 10/M09 A3025 RMK A01 T00981087  RH  026%=      5-min Rain = 0
KTAT 200010Z 27003KT 10/M09 A3025 RMK A01 T00951087  RH  027%=      5-min Rain = 0
KTAT 200015Z 23002KT 09/M09 A3025 RMK A01 T00881089  RH  028%=      5-min Rain = 0
KTAT 200020Z 23003KT 08/M09 A3025 RMK A01 T00791090  RH  029%=      5-min Rain = 0
KTAT 200025Z 24003KT 08/M09 A3025 RMK A01 T00751090  RH  030%=      5-min Rain = 0
KTAT 200030Z 24003KT 07/M09 A3025 RMK A01 T00711090  RH  031%=      5-min Rain = 0
KTAT 200035Z 22003KT 06/M09 A3025 RMK A01 T00601090  RH  033%=      5-min Rain = 0
KTAT 200040Z 21004KT 06/M09 A3025 RMK A01 T00581091  RH  033%=      5-min Rain = 0
KTAT 200045Z 21004KT 05/M09 A3025 RMK A01 T00541091  RH  034%=      5-min Rain = 0
KTAT 200050Z 21004KT 05/M09 A3025 RMK A01 T00501091  RH  035%=      5-min Rain = 0
KTAT 200055Z 20004KT 05/M09 A3025 RMK A01 T00461091  RH  036%=      5-min Rain = 0
KTAT 200100Z 20003KT 05/M09 A3025 RMK A01 T00471091  RH  036%=      5-min Rain = 0
KTAT 200105Z 20002KT 05/M09 A3025 RMK A01 T00471091  RH  036%=      5-min Rain = 0
KTAT 200110Z 18003KT 05/M09 A3025 RMK A01 T00471090  RH  036%=      5-min Rain = 0
KTAT 200115Z 17003KT 04/M09 A3025 RMK A01 T00441090  RH  037%=      5-min Rain = 0
KTAT 200120Z 16003KT 04/M09 A3024 RMK A01 T00381089  RH  039%=      5-min Rain = 0
KTAT 200125Z 15004KT 03/M09 A3024 RMK A01 T00261085  RH  044%=      5-min Rain = 0
KTAT 200130Z 15005KT 02/M08 A3024 RMK A01 T00191083  RH  047%=      5-min Rain = 0
KTAT 200135Z 15005KT 02/M08 A3024 RMK A01 T00161083  RH  048%=      5-min Rain = 0
KTAT 200140Z 16004KT 02/M08 A3024 RMK A01 T00151083  RH  048%=      5-min Rain = 0
KTAT 200145Z 16005KT 02/M08 A3024 RMK A01 T00171082  RH  048%=      5-min Rain = 0
KTAT 200150Z 17005KT 02/M08 A3024 RMK A01 T00161081  RH  048%=      5-min Rain = 0
KTAT 200155Z 19005KT 01/M08 A3025 RMK A01 T00121083  RH  049%=      5-min Rain = 0
KTAT 200200Z 19003KT 01/M08 A3025 RMK A01 T00081081  RH  051%=      5-min Rain = 0
KTAT 200205Z 23003KT 00/M08 A3027 RMK A01 T00011080  RH  054%=      5-min Rain = 0
KTAT 200210Z 23006KT M01/M08 A3028 RMK A01 T10051079  RH  057%=      5-min Rain = 0
KTAT 200215Z 23006KT M00/M08 A3028 RMK A01 T10011077  RH  057%=      5-min Rain = 0
KTAT 200220Z 23007KT M00/M08 A3028 RMK A01 T10011077  RH  057%=      5-min Rain = 0
KTAT 200225Z 24005KT M00/M08 A3029 RMK A01 T10021077  RH  057%=      5-min Rain = 0
KTAT 200230Z 24006KT M00/M08 A3029 RMK A01 T10021077  RH  057%=      5-min Rain = 0
KTAT 200235Z 24005KT M00/M08 A3029 RMK A01 T10041078  RH  057%=      5-min Rain = 0
KTAT 200240Z 24006KT M00/M08 A3029 RMK A01 T10041077  RH  058%=      5-min Rain = 0
KTAT 200245Z 23006KT M01/M08 A3028 RMK A01 T10051078  RH  058%=      5-min Rain = 0
KTAT 200250Z 22005KT M01/M08 A3028 RMK A01 T10081079  RH  058%=      5-min Rain = 0
KTAT 200255Z 22005KT M01/M08 A3028 RMK A01 T10101079  RH  059%=      5-min Rain = 0
KTAT 200300Z 21006KT M01/M08 A3027 RMK A01 T10131080  RH  060%=      5-min Rain = 0
KTAT 200305Z 21006KT M02/M08 A3027 RMK A01 T10161081  RH  061%=      5-min Rain = 0
KTAT 200310Z 21006KT M02/M08 A3027 RMK A01 T10201080  RH  063%=      5-min Rain = 0
KTAT 200315Z 21005KT M02/M08 A3027 RMK A01 T10231081  RH  064%=      5-min Rain = 0
KTAT 200320Z 20005KT M03/M08 A3026 RMK A01 T10251081  RH  066%=      5-min Rain = 0
KTAT 200325Z 21005KT M02/M08 A3026 RMK A01 T10221078  RH  066%=      5-min Rain = 0
KTAT 200330Z 22006KT M02/M08 A3026 RMK A01 T10201078  RH  065%=      5-min Rain = 0
KTAT 200335Z 22006KT M02/M08 A3026 RMK A01 T10231076  RH  067%=      5-min Rain = 0
KTAT 200340Z 23006KT M03/M08 A3027 RMK A01 T10251076  RH  068%=      5-min Rain = 0
KTAT 200345Z 23006KT M02/M08 A3027 RMK A01 T10221076  RH  066%=      5-min Rain = 0
KTAT 200350Z 23007KT M02/M08 A3027 RMK A01 T10221077  RH  066%=      5-min Rain = 0
KTAT 200355Z 23006KT M03/M08 A3027 RMK A01 T10261077  RH  068%=      5-min Rain = 0
KTAT 200400Z 24006KT M03/M08 A3027 RMK A01 T10301079  RH  069%=      5-min Rain = 0
KTAT 200405Z 23007KT M03/M08 A3027 RMK A01 T10281078  RH  068%=      5-min Rain = 0
KTAT 200410Z 22008KT M02/M08 A3027 RMK A01 T10221076  RH  067%=      5-min Rain = 0
KTAT 200415Z 23009KT M02/M07 A3027 RMK A01 T10201071  RH  068%=      5-min Rain = 0
KTAT 200420Z 23008KT M01/M07 A3027 RMK A01 T10141068  RH  067%=      5-min Rain = 0
KTAT 200425Z 22008KT M01/M07 A3027 RMK A01 T10101067  RH  066%=      5-min Rain = 0
KTAT 200430Z 22009KT M01/M07 A3026 RMK A01 T10121068  RH  066%=      5-min Rain = 0
KTAT 200435Z 22009KT M01/M07 A3027 RMK A01 T10141068  RH  067%=      5-min Rain = 0
KTAT 200440Z 22009KT M01/M07 A3027 RMK A01 T10141067  RH  067%=      5-min Rain = 0
KTAT 200445Z 22008KT M01/M07 A3026 RMK A01 T10111067  RH  066%=      5-min Rain = 0
KTAT 200450Z 22009KT M01/M07 A3027 RMK A01 T10121067  RH  066%=      5-min Rain = 0
KTAT 200455Z 22010KT M01/M07 A3026 RMK A01 T10121066  RH  067%=      5-min Rain = 0
KTAT 200500Z 22010KT M01/M06 A3026 RMK A01 T10091064  RH  066%=      5-min Rain = 0
KTAT 200505Z 21009KT M01/M06 A3026 RMK A01 T10061063  RH  065%=      5-min Rain = 0
KTAT 200510Z 20009KT M01/M06 A3026 RMK A01 T10051064  RH  065%=      5-min Rain = 0
KTAT 200515Z 20010KT M01/M06 A3026 RMK A01 T10061063  RH  065%=      5-min Rain = 0
KTAT 200520Z 21009KT M00/M06 A3026 RMK A01 T10031060  RH  065%=      5-min Rain = 0
KTAT 200525Z 21008KT 00/M06 A3026 RMK A01 T00031060  RH  063%=      5-min Rain = 0
KTAT 200530Z 22008KT 00/M06 A3027 RMK A01 T00021061  RH  062%=      5-min Rain = 0
KTAT 200535Z 22007KT 00/06 A3027 RMK A01 T00-00-62  RH  063%=      5-min Rain = 0
KTAT 200540Z 21007KT M00/M06 A3027 RMK A01 T10021063  RH  064%=      5-min Rain = 0
KTAT 200545Z 21007KT M00/M06 A3027 RMK A01 T10031062  RH  064%=      5-min Rain = 0
KTAT 200550Z 22008KT M01/M06 A3027 RMK A01 T10051063  RH  065%=      5-min Rain = 0
KTAT 200555Z 22008KT M01/M06 A3027 RMK A01 T10051063  RH  065%=      5-min Rain = 0

Page generated in 0.0087 seconds.